sensor_id;sensor_type;location;lat;lon;timestamp;pressure;altitude;pressure_sealevel;temperature;humidity
27888;BME280;15237;49.608;7.170;2022-12-07T00:00:04;978.34;;;18.90;40.08
27888;BME280;15237;49.608;7.170;2022-12-07T00:00:49;978.32;;;18.91;40.07
27888;BME280;15237;49.608;7.170;2022-12-07T00:01:40;978.31;;;18.90;40.06
27888;BME280;15237;49.608;7.170;2022-12-07T00:02:24;978.30;;;18.83;40.25
27888;BME280;15237;49.608;7.170;2022-12-07T00:03:18;978.32;;;18.86;40.15
27888;BME280;15237;49.608;7.170;2022-12-07T00:04:03;978.31;;;18.87;40.13
27888;BME280;15237;49.608;7.170;2022-12-07T00:04:48;978.30;;;18.89;40.11
27888;BME280;15237;49.608;7.170;2022-12-07T00:05:31;978.30;;;18.89;40.08
27888;BME280;15237;49.608;7.170;2022-12-07T00:06:14;978.30;;;18.91;40.04
27888;BME280;15237;49.608;7.170;2022-12-07T00:06:58;978.31;;;18.89;40.07
27888;BME280;15237;49.608;7.170;2022-12-07T00:07:39;978.30;;;18.94;40.00
27888;BME280;15237;49.608;7.170;2022-12-07T00:08:20;978.31;;;19.01;39.85
27888;BME280;15237;49.608;7.170;2022-12-07T00:09:06;978.28;;;19.00;39.89
27888;BME280;15237;49.608;7.170;2022-12-07T00:09:49;978.30;;;18.96;39.95
27888;BME280;15237;49.608;7.170;2022-12-07T00:10:33;978.27;;;18.92;40.01
27888;BME280;15237;49.608;7.170;2022-12-07T00:11:21;978.28;;;18.92;40.01
27888;BME280;15237;49.608;7.170;2022-12-07T00:12:00;978.28;;;18.93;39.98
27888;BME280;15237;49.608;7.170;2022-12-07T00:12:43;978.28;;;18.93;39.98
27888;BME280;15237;49.608;7.170;2022-12-07T00:13:29;978.29;;;18.94;39.94
27888;BME280;15237;49.608;7.170;2022-12-07T00:14:14;978.27;;;18.89;40.06
27888;BME280;15237;49.608;7.170;2022-12-07T00:14:55;978.25;;;18.85;40.14
27888;BME280;15237;49.608;7.170;2022-12-07T00:15:40;978.23;;;18.83;40.17
27888;BME280;15237;49.608;7.170;2022-12-07T00:16:26;978.23;;;18.81;40.24
27888;BME280;15237;49.608;7.170;2022-12-07T00:17:06;978.20;;;18.84;40.16
27888;BME280;15237;49.608;7.170;2022-12-07T00:17:52;978.19;;;18.86;40.09
27888;BME280;15237;49.608;7.170;2022-12-07T00:18:36;978.17;;;18.83;40.17
27888;BME280;15237;49.608;7.170;2022-12-07T00:19:16;978.18;;;18.84;40.15
27888;BME280;15237;49.608;7.170;2022-12-07T00:19:59;978.20;;;18.88;40.08
27888;BME280;15237;49.608;7.170;2022-12-07T00:20:42;978.22;;;18.87;40.10
27888;BME280;15237;49.608;7.170;2022-12-07T00:21:29;978.20;;;18.83;40.15
27888;BME280;15237;49.608;7.170;2022-12-07T00:22:14;978.16;;;18.81;40.18
27888;BME280;15237;49.608;7.170;2022-12-07T00:22:58;978.15;;;18.80;40.20
27888;BME280;15237;49.608;7.170;2022-12-07T00:23:41;978.13;;;18.80;40.21
27888;BME280;15237;49.608;7.170;2022-12-07T00:24:24;978.13;;;18.81;40.18
27888;BME280;15237;49.608;7.170;2022-12-07T00:25:08;978.13;;;18.80;40.21
27888;BME280;15237;49.608;7.170;2022-12-07T00:25:51;978.13;;;18.77;40.27
27888;BME280;15237;49.608;7.170;2022-12-07T00:26:33;978.14;;;18.78;40.24
27888;BME280;15237;49.608;7.170;2022-12-07T00:27:16;978.12;;;18.78;40.25
27888;BME280;15237;49.608;7.170;2022-12-07T00:27:58;978.14;;;18.81;40.18
27888;BME280;15237;49.608;7.170;2022-12-07T00:28:46;978.14;;;18.79;40.22
27888;BME280;15237;49.608;7.170;2022-12-07T00:29:34;978.14;;;18.79;40.21
27888;BME280;15237;49.608;7.170;2022-12-07T00:30:18;978.12;;;18.75;40.28
27888;BME280;15237;49.608;7.170;2022-12-07T00:31:08;978.14;;;18.80;40.20
27888;BME280;15237;49.608;7.170;2022-12-07T00:31:50;978.12;;;18.80;40.20
27888;BME280;15237;49.608;7.170;2022-12-07T00:32:35;978.15;;;18.84;40.12
27888;BME280;15237;49.608;7.170;2022-12-07T00:33:20;978.16;;;18.83;40.13
27888;BME280;15237;49.608;7.170;2022-12-07T00:34:06;978.18;;;18.86;40.04
27888;BME280;15237;49.608;7.170;2022-12-07T00:34:49;978.16;;;18.83;40.12
27888;BME280;15237;49.608;7.170;2022-12-07T00:35:33;978.15;;;18.80;40.15
27888;BME280;15237;49.608;7.170;2022-12-07T00:36:18;978.13;;;18.79;40.20
27888;BME280;15237;49.608;7.170;2022-12-07T00:37:01;978.17;;;18.80;40.17
27888;BME280;15237;49.608;7.170;2022-12-07T00:37:44;978.15;;;18.83;40.10
27888;BME280;15237;49.608;7.170;2022-12-07T00:38:29;978.17;;;18.83;40.10
27888;BME280;15237;49.608;7.170;2022-12-07T00:39:14;978.18;;;18.81;40.15
27888;BME280;15237;49.608;7.170;2022-12-07T00:40:02;978.16;;;18.76;40.26
27888;BME280;15237;49.608;7.170;2022-12-07T00:41:37;978.16;;;18.75;40.26
27888;BME280;15237;49.608;7.170;2022-12-07T00:42:23;978.16;;;18.73;40.31
27888;BME280;15237;49.608;7.170;2022-12-07T00:43:03;978.16;;;18.75;40.25
27888;BME280;15237;49.608;7.170;2022-12-07T00:43:51;978.14;;;18.70;40.36
27888;BME280;15237;49.608;7.170;2022-12-07T00:44:32;978.16;;;18.72;40.31
27888;BME280;15237;49.608;7.170;2022-12-07T00:45:16;978.15;;;18.74;40.27
27888;BME280;15237;49.608;7.170;2022-12-07T00:46:00;978.15;;;18.73;40.30
27888;BME280;15237;49.608;7.170;2022-12-07T00:46:41;978.15;;;18.72;40.30
27888;BME280;15237;49.608;7.170;2022-12-07T00:47:28;978.14;;;18.70;40.36
27888;BME280;15237;49.608;7.170;2022-12-07T00:48:12;978.14;;;18.71;40.33
27888;BME280;15237;49.608;7.170;2022-12-07T00:48:58;978.12;;;18.70;40.35
27888;BME280;15237;49.608;7.170;2022-12-07T00:49:40;978.11;;;18.70;40.34
27888;BME280;15237;49.608;7.170;2022-12-07T00:50:25;978.11;;;18.72;40.29
27888;BME280;15237;49.608;7.170;2022-12-07T00:51:06;978.11;;;18.73;40.30
27888;BME280;15237;49.608;7.170;2022-12-07T00:51:48;978.08;;;18.73;40.27
27888;BME280;15237;49.608;7.170;2022-12-07T00:52:34;978.07;;;18.70;40.34
27888;BME280;15237;49.608;7.170;2022-12-07T00:53:15;978.05;;;18.72;40.32
27888;BME280;15237;49.608;7.170;2022-12-07T00:53:59;978.06;;;18.74;40.24
27888;BME280;15237;49.608;7.170;2022-12-07T00:54:43;978.03;;;18.74;40.25
27888;BME280;15237;49.608;7.170;2022-12-07T00:55:26;978.02;;;18.71;40.31
27888;BME280;15237;49.608;7.170;2022-12-07T00:56:12;978.04;;;18.72;40.30
27888;BME280;15237;49.608;7.170;2022-12-07T00:56:58;978.01;;;18.71;40.31
27888;BME280;15237;49.608;7.170;2022-12-07T00:57:38;978.01;;;18.72;40.31
27888;BME280;15237;49.608;7.170;2022-12-07T00:58:23;978.00;;;18.69;40.35
27888;BME280;15237;49.608;7.170;2022-12-07T00:59:10;978.00;;;18.70;40.32
27888;BME280;15237;49.608;7.170;2022-12-07T00:59:52;977.96;;;18.72;40.26
27888;BME280;15237;49.608;7.170;2022-12-07T01:00:41;977.96;;;18.68;40.37
27888;BME280;15237;49.608;7.170;2022-12-07T01:01:27;977.95;;;18.67;40.39
27888;BME280;15237;49.608;7.170;2022-12-07T01:02:12;977.97;;;18.67;40.38
27888;BME280;15237;49.608;7.170;2022-12-07T01:02:57;977.96;;;18.64;40.44
27888;BME280;15237;49.608;7.170;2022-12-07T01:03:41;977.93;;;18.68;40.36
27888;BME280;15237;49.608;7.170;2022-12-07T01:04:27;977.96;;;18.64;40.42
27888;BME280;15237;49.608;7.170;2022-12-07T01:05:11;977.93;;;18.64;40.45
27888;BME280;15237;49.608;7.170;2022-12-07T01:05:52;977.93;;;18.66;40.41
27888;BME280;15237;49.608;7.170;2022-12-07T01:06:38;977.92;;;18.65;40.42
27888;BME280;15237;49.608;7.170;2022-12-07T01:07:20;977.91;;;18.64;40.44
27888;BME280;15237;49.608;7.170;2022-12-07T01:08:08;977.93;;;18.66;40.39
27888;BME280;15237;49.608;7.170;2022-12-07T01:08:53;977.95;;;18.64;40.42
27888;BME280;15237;49.608;7.170;2022-12-07T01:09:40;977.95;;;18.70;40.30
27888;BME280;15237;49.608;7.170;2022-12-07T01:10:25;977.94;;;18.70;40.29
27888;BME280;15237;49.608;7.170;2022-12-07T01:11:09;977.93;;;18.72;40.24
27888;BME280;15237;49.608;7.170;2022-12-07T01:11:55;977.95;;;18.75;40.20
27888;BME280;15237;49.608;7.170;2022-12-07T01:12:39;977.94;;;18.69;40.33
27888;BME280;15237;49.608;7.170;2022-12-07T01:13:22;977.96;;;18.71;40.25
27888;BME280;15237;49.608;7.170;2022-12-07T01:14:05;977.97;;;18.71;40.27
27888;BME280;15237;49.608;7.170;2022-12-07T01:14:46;977.98;;;18.69;40.29
27888;BME280;15237;49.608;7.170;2022-12-07T01:15:30;977.96;;;18.70;40.29
27888;BME280;15237;49.608;7.170;2022-12-07T01:16:15;977.92;;;18.66;40.38
27888;BME280;15237;49.608;7.170;2022-12-07T01:16:58;977.95;;;18.68;40.30
27888;BME280;15237;49.608;7.170;2022-12-07T01:17:43;977.95;;;18.67;40.32
27888;BME280;15237;49.608;7.170;2022-12-07T01:18:27;977.96;;;18.66;40.35
27888;BME280;15237;49.608;7.170;2022-12-07T01:19:11;977.96;;;18.67;40.35
27888;BME280;15237;49.608;7.170;2022-12-07T01:19:57;977.98;;;18.69;40.30
27888;BME280;15237;49.608;7.170;2022-12-07T01:20:39;978.00;;;18.68;40.31
27888;BME280;15237;49.608;7.170;2022-12-07T01:21:25;977.99;;;18.70;40.30
27888;BME280;15237;49.608;7.170;2022-12-07T01:22:12;978.01;;;18.71;40.24
27888;BME280;15237;49.608;7.170;2022-12-07T01:22:49;978.01;;;18.72;40.26
27888;BME280;15237;49.608;7.170;2022-12-07T01:23:33;978.01;;;18.75;40.18
27888;BME280;15237;49.608;7.170;2022-12-07T01:24:14;978.01;;;18.77;40.14
27888;BME280;15237;49.608;7.170;2022-12-07T01:24:55;978.02;;;18.76;40.15
27888;BME280;15237;49.608;7.170;2022-12-07T01:25:39;978.04;;;18.71;40.25
27888;BME280;15237;49.608;7.170;2022-12-07T01:26:22;978.05;;;18.73;40.25
27888;BME280;15237;49.608;7.170;2022-12-07T01:27:09;978.03;;;18.75;40.19
27888;BME280;15237;49.608;7.170;2022-12-07T01:27:53;978.01;;;18.75;40.15
27888;BME280;15237;49.608;7.170;2022-12-07T01:28:36;978.02;;;18.75;40.17
27888;BME280;15237;49.608;7.170;2022-12-07T01:29:18;978.01;;;18.73;40.19
27888;BME280;15237;49.608;7.170;2022-12-07T01:30:02;978.01;;;18.74;40.17
27888;BME280;15237;49.608;7.170;2022-12-07T01:31:36;977.97;;;18.69;40.28
27888;BME280;15237;49.608;7.170;2022-12-07T01:32:16;977.99;;;18.72;40.21
27888;BME280;15237;49.608;7.170;2022-12-07T01:32:59;977.97;;;18.68;40.28
27888;BME280;15237;49.608;7.170;2022-12-07T01:33:45;977.99;;;18.71;40.22
27888;BME280;15237;49.608;7.170;2022-12-07T01:34:26;977.98;;;18.69;40.27
27888;BME280;15237;49.608;7.170;2022-12-07T01:35:10;977.97;;;18.73;40.19
27888;BME280;15237;49.608;7.170;2022-12-07T01:35:53;977.94;;;18.72;40.20
27888;BME280;15237;49.608;7.170;2022-12-07T01:36:40;977.97;;;18.74;40.13
27888;BME280;15237;49.608;7.170;2022-12-07T01:37:20;977.96;;;18.73;40.19
27888;BME280;15237;49.608;7.170;2022-12-07T01:38:03;977.94;;;18.69;40.24
27888;BME280;15237;49.608;7.170;2022-12-07T01:38:49;977.91;;;18.71;40.20
27888;BME280;15237;49.608;7.170;2022-12-07T01:39:33;977.90;;;18.71;40.22
27888;BME280;15237;49.608;7.170;2022-12-07T01:40:22;977.90;;;18.72;40.19
27888;BME280;15237;49.608;7.170;2022-12-07T01:41:02;977.88;;;18.72;40.19
27888;BME280;15237;49.608;7.170;2022-12-07T01:41:46;977.88;;;18.71;40.22
27888;BME280;15237;49.608;7.170;2022-12-07T01:42:32;977.86;;;18.68;40.24
27888;BME280;15237;49.608;7.170;2022-12-07T01:43:17;977.85;;;18.69;40.24
27888;BME280;15237;49.608;7.170;2022-12-07T01:45:38;977.83;;;18.68;40.26
27888;BME280;15237;49.608;7.170;2022-12-07T01:46:24;977.83;;;18.62;40.38
27888;BME280;15237;49.608;7.170;2022-12-07T01:47:08;977.85;;;18.65;40.31
27888;BME280;15237;49.608;7.170;2022-12-07T01:47:53;977.85;;;18.66;40.29
27888;BME280;15237;49.608;7.170;2022-12-07T01:48:39;977.85;;;18.69;40.23
27888;BME280;15237;49.608;7.170;2022-12-07T01:50:17;977.88;;;18.73;40.13
27888;BME280;15237;49.608;7.170;2022-12-07T01:51:03;977.88;;;18.71;40.19
27888;BME280;15237;49.608;7.170;2022-12-07T01:51:50;977.89;;;18.71;40.18
27888;BME280;15237;49.608;7.170;2022-12-07T01:52:33;977.89;;;18.73;40.14
27888;BME280;15237;49.608;7.170;2022-12-07T01:53:13;977.89;;;18.72;40.13
27888;BME280;15237;49.608;7.170;2022-12-07T01:53:57;977.95;;;18.70;40.16
27888;BME280;15237;49.608;7.170;2022-12-07T01:54:42;977.94;;;18.71;40.16
27888;BME280;15237;49.608;7.170;2022-12-07T01:55:28;977.95;;;18.66;40.27
27888;BME280;15237;49.608;7.170;2022-12-07T01:56:17;977.94;;;18.70;40.20
27888;BME280;15237;49.608;7.170;2022-12-07T01:57:00;977.97;;;18.67;40.26
27888;BME280;15237;49.608;7.170;2022-12-07T01:57:43;977.99;;;18.70;40.19
27888;BME280;15237;49.608;7.170;2022-12-07T01:58:28;977.98;;;18.67;40.24
27888;BME280;15237;49.608;7.170;2022-12-07T01:59:12;977.98;;;18.70;40.19
27888;BME280;15237;49.608;7.170;2022-12-07T01:59:53;977.98;;;18.72;40.14
27888;BME280;15237;49.608;7.170;2022-12-07T02:00:40;977.95;;;18.74;40.11
27888;BME280;15237;49.608;7.170;2022-12-07T02:01:26;977.95;;;18.80;39.98
27888;BME280;15237;49.608;7.170;2022-12-07T02:02:16;977.95;;;18.76;40.06
27888;BME280;15237;49.608;7.170;2022-12-07T02:03:45;977.97;;;18.74;40.08
27888;BME280;15237;49.608;7.170;2022-12-07T02:04:32;977.96;;;18.72;40.12
27888;BME280;15237;49.608;7.170;2022-12-07T02:05:16;977.95;;;18.69;40.16
27888;BME280;15237;49.608;7.170;2022-12-07T02:06:02;977.93;;;18.68;40.20
27888;BME280;15237;49.608;7.170;2022-12-07T02:06:46;977.93;;;18.69;40.17
27888;BME280;15237;49.608;7.170;2022-12-07T02:07:27;977.94;;;18.67;40.24
27888;BME280;15237;49.608;7.170;2022-12-07T02:08:11;977.92;;;18.65;40.25
27888;BME280;15237;49.608;7.170;2022-12-07T02:08:56;977.94;;;18.69;40.19
27888;BME280;15237;49.608;7.170;2022-12-07T02:09:41;977.93;;;18.65;40.24
27888;BME280;15237;49.608;7.170;2022-12-07T02:10:26;977.92;;;18.69;40.17
27888;BME280;15237;49.608;7.170;2022-12-07T02:11:08;977.90;;;18.67;40.22
27888;BME280;15237;49.608;7.170;2022-12-07T02:11:54;977.92;;;18.69;40.20
27888;BME280;15237;49.608;7.170;2022-12-07T02:12:39;977.90;;;18.69;40.16
27888;BME280;15237;49.608;7.170;2022-12-07T02:13:24;977.88;;;18.71;40.13
27888;BME280;15237;49.608;7.170;2022-12-07T02:14:09;977.87;;;18.69;40.15
27888;BME280;15237;49.608;7.170;2022-12-07T02:14:56;977.84;;;18.64;40.28
27888;BME280;15237;49.608;7.170;2022-12-07T02:24:44;977.75;;;19.23;39.10
27888;BME280;15237;49.608;7.170;2022-12-07T02:25:29;977.73;;;19.26;39.04
27888;BME280;15237;49.608;7.170;2022-12-07T02:29:39;977.74;;;19.22;39.08
27888;BME280;15237;49.608;7.170;2022-12-07T02:30:20;977.74;;;19.22;39.09
27888;BME280;15237;49.608;7.170;2022-12-07T02:31:54;977.73;;;19.21;39.10
27888;BME280;15237;49.608;7.170;2022-12-07T02:36:52;977.73;;;19.22;39.07
27888;BME280;15237;49.608;7.170;2022-12-07T02:38:22;977.70;;;19.18;39.11
27888;BME280;15237;49.608;7.170;2022-12-07T02:39:07;977.69;;;19.24;39.02
27888;BME280;15237;49.608;7.170;2022-12-07T02:39:48;977.70;;;19.26;38.96
27888;BME280;15237;49.608;7.170;2022-12-07T02:41:16;977.68;;;19.27;38.94
27888;BME280;15237;49.608;7.170;2022-12-07T02:41:58;977.68;;;19.31;38.88
27888;BME280;15237;49.608;7.170;2022-12-07T02:42:41;977.66;;;19.35;38.78
27888;BME280;15237;49.608;7.170;2022-12-07T02:44:06;977.65;;;19.35;38.78
27888;BME280;15237;49.608;7.170;2022-12-07T02:44:44;977.66;;;19.31;38.85
27888;BME280;15237;49.608;7.170;2022-12-07T02:45:25;977.63;;;19.30;38.88
27888;BME280;15237;49.608;7.170;2022-12-07T02:46:05;977.64;;;19.31;38.82
27888;BME280;15237;49.608;7.170;2022-12-07T02:46:47;977.64;;;19.35;38.75
27888;BME280;15237;49.608;7.170;2022-12-07T02:47:30;977.66;;;19.38;38.69
27888;BME280;15237;49.608;7.170;2022-12-07T02:48:10;977.63;;;19.36;38.75
27888;BME280;15237;49.608;7.170;2022-12-07T02:48:49;977.63;;;19.35;38.77
27888;BME280;15237;49.608;7.170;2022-12-07T02:49:28;977.63;;;19.34;38.77
27888;BME280;15237;49.608;7.170;2022-12-07T02:50:08;977.62;;;19.34;38.77
27888;BME280;15237;49.608;7.170;2022-12-07T02:50:50;977.61;;;19.34;38.77
27888;BME280;15237;49.608;7.170;2022-12-07T02:51:31;977.62;;;19.36;38.72
27888;BME280;15237;49.608;7.170;2022-12-07T02:52:13;977.61;;;19.32;38.79
27888;BME280;15237;49.608;7.170;2022-12-07T02:52:50;977.62;;;19.34;38.73
27888;BME280;15237;49.608;7.170;2022-12-07T02:54:11;977.61;;;19.29;38.85
27888;BME280;15237;49.608;7.170;2022-12-07T02:54:50;977.61;;;19.28;38.88
27888;BME280;15237;49.608;7.170;2022-12-07T02:55:37;977.62;;;19.27;38.89
27888;BME280;15237;49.608;7.170;2022-12-07T02:57:46;977.63;;;19.30;38.81
27888;BME280;15237;49.608;7.170;2022-12-07T03:00:30;977.63;;;19.30;38.83
27888;BME280;15237;49.608;7.170;2022-12-07T03:01:14;977.63;;;19.29;38.81
27888;BME280;15237;49.608;7.170;2022-12-07T03:03:11;977.64;;;19.26;38.85
27888;BME280;15237;49.608;7.170;2022-12-07T03:03:55;977.64;;;19.25;38.90
27888;BME280;15237;49.608;7.170;2022-12-07T03:06:10;977.65;;;19.27;38.82
27888;BME280;15237;49.608;7.170;2022-12-07T03:07:09;977.62;;;19.28;38.78
27888;BME280;15237;49.608;7.170;2022-12-07T03:08:21;977.63;;;19.25;38.87
27888;BME280;15237;49.608;7.170;2022-12-07T03:09:04;977.65;;;19.25;38.90
27888;BME280;15237;49.608;7.170;2022-12-07T03:09:45;977.65;;;19.26;38.83
27888;BME280;15237;49.608;7.170;2022-12-07T03:11:10;977.66;;;19.29;38.80
27888;BME280;15237;49.608;7.170;2022-12-07T03:13:28;977.65;;;19.33;38.70
27888;BME280;15237;49.608;7.170;2022-12-07T03:14:15;977.67;;;19.41;38.57
27888;BME280;15237;49.608;7.170;2022-12-07T03:15:04;977.67;;;19.41;38.55
27888;BME280;15237;49.608;7.170;2022-12-07T03:17:10;977.65;;;19.40;38.56
27888;BME280;15237;49.608;7.170;2022-12-07T03:17:49;977.63;;;19.39;38.57
27888;BME280;15237;49.608;7.170;2022-12-07T03:18:29;977.62;;;19.39;38.57
27888;BME280;15237;49.608;7.170;2022-12-07T03:19:13;977.62;;;19.36;38.60
27888;BME280;15237;49.608;7.170;2022-12-07T03:19:53;977.61;;;19.38;38.60
27888;BME280;15237;49.608;7.170;2022-12-07T03:20:36;977.61;;;19.33;38.68
27888;BME280;15237;49.608;7.170;2022-12-07T03:21:17;977.60;;;19.33;38.69
27888;BME280;15237;49.608;7.170;2022-12-07T03:21:57;977.60;;;19.31;38.71
27888;BME280;15237;49.608;7.170;2022-12-07T03:22:35;977.59;;;19.32;38.70
27888;BME280;15237;49.608;7.170;2022-12-07T03:23:16;977.56;;;19.30;38.73
27888;BME280;15237;49.608;7.170;2022-12-07T03:23:56;977.57;;;19.36;38.60
27888;BME280;15237;49.608;7.170;2022-12-07T03:24:36;977.55;;;19.30;38.70
27888;BME280;15237;49.608;7.170;2022-12-07T03:25:17;977.54;;;19.31;38.70
27888;BME280;15237;49.608;7.170;2022-12-07T03:25:56;977.55;;;19.31;38.70
27888;BME280;15237;49.608;7.170;2022-12-07T03:26:40;977.50;;;19.29;38.73
27888;BME280;15237;49.608;7.170;2022-12-07T03:27:26;977.52;;;19.29;38.72
27888;BME280;15237;49.608;7.170;2022-12-07T03:28:06;977.53;;;19.32;38.66
27888;BME280;15237;49.608;7.170;2022-12-07T03:28:50;977.53;;;19.32;38.67
27888;BME280;15237;49.608;7.170;2022-12-07T03:29:37;977.50;;;19.31;38.67
27888;BME280;15237;49.608;7.170;2022-12-07T03:30:20;977.49;;;19.32;38.65
27888;BME280;15237;49.608;7.170;2022-12-07T03:31:47;977.50;;;19.27;38.78
27888;BME280;15237;49.608;7.170;2022-12-07T03:33:07;977.48;;;19.24;38.81
27888;BME280;15237;49.608;7.170;2022-12-07T03:34:33;977.44;;;19.24;38.82
27888;BME280;15237;49.608;7.170;2022-12-07T03:38:56;977.42;;;19.23;38.82
27888;BME280;15237;49.608;7.170;2022-12-07T03:39:37;977.43;;;19.23;38.88
27888;BME280;15237;49.608;7.170;2022-12-07T03:41:04;977.44;;;19.28;38.75
27888;BME280;15237;49.608;7.170;2022-12-07T03:41:47;977.48;;;19.28;38.74
27888;BME280;15237;49.608;7.170;2022-12-07T03:42:26;977.46;;;19.31;38.67
27888;BME280;15237;49.608;7.170;2022-12-07T03:43:05;977.46;;;19.29;38.69
27888;BME280;15237;49.608;7.170;2022-12-07T03:43:44;977.46;;;19.28;38.70
27888;BME280;15237;49.608;7.170;2022-12-07T03:44:23;977.44;;;19.27;38.76
27888;BME280;15237;49.608;7.170;2022-12-07T03:45:02;977.45;;;19.27;38.75
27888;BME280;15237;49.608;7.170;2022-12-07T03:45:41;977.44;;;19.31;38.64
27888;BME280;15237;49.608;7.170;2022-12-07T03:47:53;977.39;;;19.28;38.73
27888;BME280;15237;49.608;7.170;2022-12-07T03:48:40;977.38;;;19.29;38.68
27888;BME280;15237;49.608;7.170;2022-12-07T03:49:22;977.39;;;19.30;38.66
27888;BME280;15237;49.608;7.170;2022-12-07T03:50:06;977.39;;;19.29;38.69
27888;BME280;15237;49.608;7.170;2022-12-07T03:51:39;977.41;;;19.28;38.70
27888;BME280;15237;49.608;7.170;2022-12-07T03:54:15;977.47;;;19.26;38.74
27888;BME280;15237;49.608;7.170;2022-12-07T03:55:38;977.44;;;19.24;38.78
27888;BME280;15237;49.608;7.170;2022-12-07T03:56:18;977.45;;;19.24;38.76
27888;BME280;15237;49.608;7.170;2022-12-07T03:56:56;977.44;;;19.23;38.80
27888;BME280;15237;49.608;7.170;2022-12-07T03:57:36;977.44;;;19.24;38.78
27888;BME280;15237;49.608;7.170;2022-12-07T03:58:18;977.46;;;19.26;38.75
27888;BME280;15237;49.608;7.170;2022-12-07T03:58:57;977.42;;;19.26;38.74
27888;BME280;15237;49.608;7.170;2022-12-07T03:59:35;977.42;;;19.26;38.76
27888;BME280;15237;49.608;7.170;2022-12-07T04:00:14;977.39;;;19.26;38.74
27888;BME280;15237;49.608;7.170;2022-12-07T04:00:51;977.41;;;19.25;38.73
27888;BME280;15237;49.608;7.170;2022-12-07T04:01:29;977.40;;;19.25;38.73
27888;BME280;15237;49.608;7.170;2022-12-07T04:02:09;977.38;;;19.22;38.79
27888;BME280;15237;49.608;7.170;2022-12-07T04:02:50;977.39;;;19.20;38.85
27888;BME280;15237;49.608;7.170;2022-12-07T04:03:29;977.41;;;19.24;38.79
27888;BME280;15237;49.608;7.170;2022-12-07T04:04:06;977.41;;;19.25;38.77
27888;BME280;15237;49.608;7.170;2022-12-07T04:04:45;977.39;;;19.22;38.81
27888;BME280;15237;49.608;7.170;2022-12-07T04:05:23;977.40;;;19.22;38.83
27888;BME280;15237;49.608;7.170;2022-12-07T04:06:02;977.39;;;19.22;38.82
27888;BME280;15237;49.608;7.170;2022-12-07T04:06:41;977.39;;;19.25;38.74
27888;BME280;15237;49.608;7.170;2022-12-07T04:07:20;977.38;;;19.22;38.80
27888;BME280;15237;49.608;7.170;2022-12-07T04:07:59;977.41;;;19.22;38.83
27888;BME280;15237;49.608;7.170;2022-12-07T04:08:40;977.38;;;19.22;38.79
27888;BME280;15237;49.608;7.170;2022-12-07T04:09:18;977.37;;;19.23;38.77
27888;BME280;15237;49.608;7.170;2022-12-07T04:09:56;977.38;;;19.22;38.78
27888;BME280;15237;49.608;7.170;2022-12-07T04:10:34;977.37;;;19.19;38.84
27888;BME280;15237;49.608;7.170;2022-12-07T04:11:12;977.37;;;19.19;38.83
27888;BME280;15237;49.608;7.170;2022-12-07T04:11:50;977.38;;;19.18;38.86
27888;BME280;15237;49.608;7.170;2022-12-07T04:12:28;977.43;;;19.18;38.86
27888;BME280;15237;49.608;7.170;2022-12-07T04:13:06;977.41;;;19.18;38.88
27888;BME280;15237;49.608;7.170;2022-12-07T04:13:43;977.44;;;19.20;38.82
27888;BME280;15237;49.608;7.170;2022-12-07T04:14:21;977.46;;;19.18;38.89
27888;BME280;15237;49.608;7.170;2022-12-07T04:15:02;977.45;;;19.20;38.82
27888;BME280;15237;49.608;7.170;2022-12-07T04:15:40;977.47;;;19.21;38.82
27888;BME280;15237;49.608;7.170;2022-12-07T04:16:18;977.46;;;19.22;38.80
27888;BME280;15237;49.608;7.170;2022-12-07T04:16:57;977.45;;;19.20;38.84
27888;BME280;15237;49.608;7.170;2022-12-07T04:17:35;977.44;;;19.20;38.84
27888;BME280;15237;49.608;7.170;2022-12-07T04:18:13;977.44;;;19.19;38.82
27888;BME280;15237;49.608;7.170;2022-12-07T04:18:52;977.42;;;19.17;38.91
27888;BME280;15237;49.608;7.170;2022-12-07T04:19:33;977.43;;;19.18;38.86
27888;BME280;15237;49.608;7.170;2022-12-07T04:20:11;977.44;;;19.17;38.90
27888;BME280;15237;49.608;7.170;2022-12-07T04:20:50;977.44;;;19.15;38.87
27888;BME280;15237;49.608;7.170;2022-12-07T04:21:30;977.45;;;19.17;38.83
27888;BME280;15237;49.608;7.170;2022-12-07T04:22:10;977.44;;;19.19;38.82
27888;BME280;15237;49.608;7.170;2022-12-07T04:22:49;977.43;;;19.18;38.86
27888;BME280;15237;49.608;7.170;2022-12-07T04:23:27;977.44;;;19.18;38.87
27888;BME280;15237;49.608;7.170;2022-12-07T04:24:06;977.44;;;19.18;38.87
27888;BME280;15237;49.608;7.170;2022-12-07T04:24:44;977.44;;;19.18;38.87
27888;BME280;15237;49.608;7.170;2022-12-07T04:25:22;977.45;;;19.17;38.88
27888;BME280;15237;49.608;7.170;2022-12-07T04:26:01;977.46;;;19.18;38.84
27888;BME280;15237;49.608;7.170;2022-12-07T04:26:41;977.47;;;19.23;38.74
27888;BME280;15237;49.608;7.170;2022-12-07T04:27:19;977.48;;;19.18;38.85
27888;BME280;15237;49.608;7.170;2022-12-07T04:27:59;977.46;;;19.18;38.84
27888;BME280;15237;49.608;7.170;2022-12-07T04:28:38;977.45;;;19.18;38.83
27888;BME280;15237;49.608;7.170;2022-12-07T04:29:17;977.46;;;19.21;38.80
27888;BME280;15237;49.608;7.170;2022-12-07T04:29:55;977.44;;;19.22;38.74
27888;BME280;15237;49.608;7.170;2022-12-07T04:30:33;977.42;;;19.21;38.79
27888;BME280;15237;49.608;7.170;2022-12-07T04:31:11;977.42;;;19.18;38.83
27888;BME280;15237;49.608;7.170;2022-12-07T04:31:50;977.41;;;19.20;38.80
27888;BME280;15237;49.608;7.170;2022-12-07T04:32:28;977.41;;;19.20;38.79
27888;BME280;15237;49.608;7.170;2022-12-07T04:33:07;977.40;;;19.20;38.80
27888;BME280;15237;49.608;7.170;2022-12-07T04:33:45;977.41;;;19.24;38.69
27888;BME280;15237;49.608;7.170;2022-12-07T04:34:25;977.41;;;19.23;38.69
27888;BME280;15237;49.608;7.170;2022-12-07T04:35:03;977.40;;;19.29;38.58
27888;BME280;15237;49.608;7.170;2022-12-07T04:35:42;977.39;;;19.18;38.80
27888;BME280;15237;49.608;7.170;2022-12-07T04:36:22;977.38;;;19.26;38.67
27888;BME280;15237;49.608;7.170;2022-12-07T04:37:03;977.35;;;19.29;38.59
27888;BME280;15237;49.608;7.170;2022-12-07T04:37:40;977.33;;;19.31;38.55
27888;BME280;15237;49.608;7.170;2022-12-07T04:38:18;977.33;;;19.35;38.47
27888;BME280;15237;49.608;7.170;2022-12-07T04:38:58;977.32;;;19.40;38.38